Time;durP1;ratioP1;P1;durP2;ratioP2;P2;SDS_P1;SDS_P2;PMS_P1;PMS_P2;Temp;Humidity;BMP_temperature;BMP_pressure;BME280_temperature;BME280_humidity;BME280_pressure;Samples;Min_cycle;Max_cycle;Signal;HPM_P1;HPM_P2
2021/06/13 00:00:19;;;;;;;0.53;0.53;;;;;;;17.07;58.44;99528.59;5066623;28;42435;-83
2021/06/13 00:02:48;;;;;;;1.43;1.33;;;;;;;17.15;58.66;99546.75;5058263;28;39061;-85
2021/06/13 00:05:16;;;;;;;0.80;0.80;;;;;;;17.08;58.85;99540.16;5098333;28;41442;-79
2021/06/13 00:07:43;;;;;;;0.93;0.83;;;;;;;17.01;60.00;99534.44;5087173;28;42846;-84
2021/06/13 00:10:12;;;;;;;0.70;0.70;;;;;;;16.96;60.07;99541.13;5052061;28;42138;-82
2021/06/13 00:12:41;;;;;;;1.23;0.83;;;;;;;16.93;60.40;99546.72;5070039;28;40511;-80
2021/06/13 00:15:13;;;;;;;1.00;1.00;;;;;;;16.86;60.22;99551.69;5069993;28;41464;-82
2021/06/13 00:17:40;;;;;;;0.80;0.70;;;;;;;16.81;60.62;99556.56;5052364;28;41918;-80
2021/06/13 00:20:12;;;;;;;1.33;1.23;;;;;;;16.76;60.93;99551.56;5071861;28;42353;-87
2021/06/13 00:22:39;;;;;;;1.07;0.70;;;;;;;16.70;60.88;99562.72;5102540;28;39617;-80
2021/06/13 00:25:10;;;;;;;0.90;0.87;;;;;;;16.63;61.10;99556.13;5051903;28;41744;-85
2021/06/13 00:27:37;;;;;;;0.60;0.60;;;;;;;16.46;60.81;99544.00;5103831;28;41858;-79
2021/06/13 00:30:07;;;;;;;0.70;0.70;;;;;;;16.53;60.96;99563.13;5068260;28;41964;-81
2021/06/13 00:32:34;;;;;;;1.40;1.30;;;;;;;16.47;60.99;99567.09;5070109;28;40389;-86
2021/06/13 00:35:02;;;;;;;1.13;1.03;;;;;;;16.33;61.13;99553.06;5086828;28;40897;-85
2021/06/13 00:37:30;;;;;;;0.70;0.70;;;;;;;16.38;60.92;99577.63;5071158;28;43424;-82
2021/06/13 00:39:58;;;;;;;0.70;0.70;;;;;;;16.37;61.23;99583.94;5051823;28;42308;-84
2021/06/13 00:42:25;;;;;;;0.70;0.70;;;;;;;16.01;61.23;99532.28;5103466;28;41602;-86
2021/06/13 00:44:52;;;;;;;0.60;0.60;;;;;;;16.26;61.34;99579.41;5069449;28;41506;-85
2021/06/13 00:47:21;;;;;;;0.53;0.53;;;;;;;16.30;61.05;99590.72;5067545;28;43351;-86
2021/06/13 00:49:48;;;;;;;0.50;0.50;;;;;;;16.27;61.03;99598.97;5068384;28;42244;-81
2021/06/13 00:52:16;;;;;;;0.50;0.50;;;;;;;16.23;60.71;99595.66;5052334;28;39922;-79
2021/06/13 00:54:46;;;;;;;0.57;0.57;;;;;;;16.17;60.89;99596.97;5061039;28;40853;-83
2021/06/13 00:57:13;;;;;;;0.50;0.50;;;;;;;16.14;60.50;99597.19;5103332;28;42305;-85
2021/06/13 00:59:41;;;;;;;1.03;0.97;;;;;;;16.08;60.88;99602.13;5052048;28;42170;-82
2021/06/13 01:02:08;;;;;;;0.40;0.40;;;;;;;16.01;61.12;99598.22;5069002;28;39773;-79
2021/06/13 01:04:36;;;;;;;0.50;0.50;;;;;;;15.95;61.18;99596.00;5070172;28;41252;-84
2021/06/13 01:07:09;;;;;;;0.50;0.50;;;;;;;15.90;60.95;99592.81;5086130;28;41810;-77
2021/06/13 01:09:43;;;;;;;0.60;0.60;;;;;;;15.83;61.16;99597.72;5051710;28;41350;-82
2021/06/13 01:12:26;;;;;;;0.70;0.70;;;;;;;15.77;61.61;99596.34;5067861;28;39917;-80
2021/06/13 01:15:04;;;;;;;0.40;0.40;;;;;;;15.70;61.84;99591.56;5052748;28;41422;-85
2021/06/13 01:17:39;;;;;;;0.40;0.40;;;;;;;15.66;61.88;99596.28;5065587;28;42692;-83
2021/06/13 01:20:24;;;;;;;0.50;0.50;;;;;;;15.54;62.43;99585.59;5053744;28;42073;-88
2021/06/13 01:23:25;;;;;;;0.70;0.70;;;;;;;15.54;62.30;99596.25;5068725;28;39615;-82
2021/06/13 01:26:35;;;;;;;0.40;0.40;;;;;;;15.46;62.01;99599.47;5031671;28;41758;-85
2021/06/13 01:29:08;;;;;;;0.60;0.60;;;;;;;15.37;62.57;99598.31;5028816;28;42668;-85
2021/06/13 01:31:39;;;;;;;0.70;0.70;;;;;;;15.33;62.21;99599.47;5051366;28;40726;-80
2021/06/13 01:34:13;;;;;;;0.93;0.70;;;;;;;15.28;62.17;99596.28;5101910;28;41370;-85
2021/06/13 01:36:46;;;;;;;0.80;0.80;;;;;;;15.24;62.15;99600.13;5069111;28;41189;-84
2021/06/13 01:39:18;;;;;;;0.83;0.60;;;;;;;15.19;62.22;99596.94;5101238;28;42640;-82
2021/06/13 01:41:46;;;;;;;0.50;0.50;;;;;;;15.15;62.56;99595.44;5102324;28;41940;-79
2021/06/13 01:44:17;;;;;;;0.80;0.80;;;;;;;15.12;63.06;99598.31;5067662;28;40521;-85
2021/06/13 01:46:47;;;;;;;0.83;0.63;;;;;;;15.09;63.33;99595.84;5053135;28;41492;-87
2021/06/13 01:49:17;;;;;;;0.70;0.70;;;;;;;15.02;63.23;99579.41;5055352;28;41529;-82
2021/06/13 01:51:45;;;;;;;0.60;0.60;;;;;;;15.12;62.96;99602.78;5070557;28;41982;-81
2021/06/13 01:54:13;;;;;;;0.73;0.67;;;;;;;15.09;62.70;99602.03;5049884;28;39038;-82
2021/06/13 01:56:45;;;;;;;0.93;0.60;;;;;;;15.09;63.16;99606.50;5103661;28;41596;-84
2021/06/13 01:59:16;;;;;;;0.50;0.50;;;;;;;15.08;62.89;99612.84;5066727;28;42148;-79
2021/06/13 02:01:51;;;;;;;0.40;0.40;;;;;;;15.07;62.71;99613.78;5102055;28;42304;-82
2021/06/13 02:04:21;;;;;;;0.40;0.40;;;;;;;15.08;62.54;99620.84;5051219;28;40097;-81
2021/06/13 02:06:57;;;;;;;0.30;0.30;;;;;;;15.06;62.75;99622.75;5051218;28;40965;-78
2021/06/13 02:09:29;;;;;;;0.53;0.53;;;;;;;15.04;62.83;99627.34;5067638;28;42709;-86
2021/06/13 02:12:03;;;;;;;0.40;0.40;;;;;;;15.00;63.07;99617.81;5102189;28;42048;-82
2021/06/13 02:14:35;;;;;;;0.30;0.30;;;;;;;14.94;63.32;99623.59;5051463;28;39106;-83
2021/06/13 02:17:07;;;;;;;0.40;0.40;;;;;;;14.90;63.73;99622.94;5068049;28;41400;-84
2021/06/13 02:19:44;;;;;;;0.40;0.40;;;;;;;14.84;63.61;99625.16;5066790;28;42848;-84
2021/06/13 02:22:20;;;;;;;0.40;0.40;;;;;;;14.76;63.82;99630.16;5064074;28;41410;-85
2021/06/13 02:24:49;;;;;;;0.53;0.53;;;;;;;14.74;63.71;99633.78;5050920;28;39823;-82
2021/06/13 02:27:25;;;;;;;0.60;0.50;;;;;;;14.71;63.27;99643.81;5084195;28;41133;-86
2021/06/13 02:29:55;;;;;;;0.50;0.50;;;;;;;14.58;63.41;99627.78;5068158;28;42951;-85
2021/06/13 02:32:24;;;;;;;1.23;0.60;;;;;;;14.60;63.08;99644.50;5054057;28;42124;-82
2021/06/13 02:34:52;;;;;;;0.40;0.40;;;;;;;14.56;63.05;99640.34;5050906;28;39080;-87
2021/06/13 02:37:29;;;;;;;0.67;0.67;;;;;;;14.52;63.35;99649.50;5067584;28;41349;-84
2021/06/13 02:39:58;;;;;;;0.43;0.43;;;;;;;14.47;63.25;99646.28;5067191;28;43166;-89
2021/06/13 02:42:35;;;;;;;0.30;0.30;;;;;;;14.43;63.16;99649.25;5084171;28;41116;-81
2021/06/13 02:45:10;;;;;;;0.37;0.33;;;;;;;14.38;63.71;99644.19;5049345;28;38988;-84
2021/06/13 02:47:38;;;;;;;0.50;0.50;;;;;;;14.30;63.73;99655.34;5084408;28;40646;-84
2021/06/13 02:50:06;;;;;;;0.80;0.80;;;;;;;14.19;63.81;99646.34;5066843;28;42332;-89
2021/06/13 02:52:41;;;;;;;1.07;0.73;;;;;;;14.27;64.56;99657.34;5084070;28;42300;-76
2021/06/13 02:55:15;;;;;;;0.47;0.47;;;;;;;14.18;64.07;99647.31;5070345;28;40724;-77
2021/06/13 02:57:48;;;;;;;0.40;0.40;;;;;;;14.07;64.10;99642.66;5081155;28;42407;-76
2021/06/13 03:00:20;;;;;;;0.33;0.33;;;;;;;14.14;64.27;99667.09;5095843;28;41529;-77
2021/06/13 03:02:53;;;;;;;0.50;0.50;;;;;;;14.10;64.24;99662.91;5065661;28;40806;-76
2021/06/13 03:05:26;;;;;;;0.43;0.43;;;;;;;14.04;64.51;99656.19;5062751;28;39777;-76
2021/06/13 03:07:56;;;;;;;1.83;0.83;;;;;;;14.01;64.49;99659.03;5113773;28;42059;-76
2021/06/13 03:10:24;;;;;;;0.30;0.30;;;;;;;13.97;64.28;99665.53;5079090;28;43232;-75
2021/06/13 03:12:56;;;;;;;0.50;0.50;;;;;;;13.91;64.59;99661.44;5063473;28;40687;-76
2021/06/13 03:15:27;;;;;;;0.20;0.20;;;;;;;13.88;64.54;99669.59;5059896;28;39770;-77
2021/06/13 03:17:56;;;;;;;1.13;0.87;;;;;;;13.84;64.53;99668.09;5095535;28;41261;-76
2021/06/13 03:20:24;;;;;;;0.40;0.40;;;;;;;13.80;64.92;99671.91;5077698;28;42917;-80
2021/06/13 03:22:54;;;;;;;0.33;0.33;;;;;;;13.75;65.15;99671.31;5079472;28;42452;-76
2021/06/13 03:25:23;;;;;;;0.40;0.40;;;;;;;13.72;64.78;99674.19;5096473;28;39408;-76
2021/06/13 03:27:53;;;;;;;0.60;0.60;;;;;;;13.70;64.76;99670.78;5078936;28;41679;-77
2021/06/13 03:30:25;;;;;;;0.40;0.40;;;;;;;13.67;64.84;99676.28;5073886;28;41802;-85
2021/06/13 03:33:00;;;;;;;0.30;0.30;;;;;;;13.63;64.93;99682.72;5087034;28;42112;-82
2021/06/13 03:35:31;;;;;;;0.30;0.30;;;;;;;13.62;65.03;99673.03;5069936;28;39823;-82
2021/06/13 03:37:59;;;;;;;0.30;0.30;;;;;;;13.60;65.05;99690.91;5070937;28;41674;-82
2021/06/13 03:40:30;;;;;;;0.37;0.37;;;;;;;13.55;65.02;99671.72;5070074;28;42331;-85
2021/06/13 03:43:02;;;;;;;0.30;0.30;;;;;;;13.54;64.95;99677.97;5053801;28;41549;-86
2021/06/13 03:45:31;;;;;;;0.30;0.30;;;;;;;13.59;64.83;99689.22;5069495;28;40875;-85
2021/06/13 03:48:00;;;;;;;0.67;0.67;;;;;;;13.60;64.79;99698.88;5071449;28;42426;-83
2021/06/13 03:50:28;;;;;;;0.53;0.40;;;;;;;13.64;65.20;99703.06;5054304;28;42639;-83
2021/06/13 03:52:57;;;;;;;0.50;0.50;;;;;;;13.69;64.83;99701.00;5053379;28;41180;-86
2021/06/13 03:55:24;;;;;;;0.30;0.30;;;;;;;13.75;64.57;99702.41;5069684;28;42125;-77
2021/06/13 03:57:54;;;;;;;0.40;0.40;;;;;;;13.78;64.40;99700.44;5071537;28;41747;-83
2021/06/13 04:00:23;;;;;;;1.30;1.20;;;;;;;13.73;64.30;99694.50;5086159;28;42102;-84
2021/06/13 04:02:53;;;;;;;0.47;0.43;;;;;;;13.89;64.46;99713.06;5065818;28;42140;-82
2021/06/13 04:05:29;;;;;;;0.30;0.30;;;;;;;13.97;64.36;99708.97;5083283;28;39971;-78
2021/06/13 04:07:57;;;;;;;0.37;0.37;;;;;;;14.03;64.45;99713.91;5085991;28;41330;-84
2021/06/13 04:10:26;;;;;;;0.40;0.40;;;;;;;14.11;64.29;99717.88;5069501;28;42901;-83
2021/06/13 04:12:55;;;;;;;0.30;0.30;;;;;;;14.05;64.02;99696.97;5090302;28;42204;-82
2021/06/13 04:15:25;;;;;;;0.30;0.30;;;;;;;14.24;64.05;99724.16;5066245;28;38882;-83
2021/06/13 04:17:54;;;;;;;0.70;0.70;;;;;;;14.25;63.79;99709.88;5096207;28;42125;-83
2021/06/13 04:20:24;;;;;;;1.10;1.03;;;;;;;14.44;63.81;99736.25;5069422;28;42911;-85
2021/06/13 04:22:52;;;;;;;0.40;0.40;;;;;;;14.43;63.65;99714.06;5067931;28;41288;-82
2021/06/13 04:25:21;;;;;;;0.40;0.40;;;;;;;14.57;63.34;99726.50;5069675;28;39659;-80
2021/06/13 04:27:53;;;;;;;0.37;0.30;;;;;;;14.69;63.16;99737.22;5067741;28;41751;-83
2021/06/13 04:30:21;;;;;;;0.67;0.67;;;;;;;14.76;62.98;99743.00;5068598;28;42599;-84
2021/06/13 04:32:49;;;;;;;0.30;0.30;;;;;;;14.86;63.03;99753.91;5069887;28;41916;-84
2021/06/13 04:35:19;;;;;;;0.60;0.60;;;;;;;14.94;62.94;99751.63;5085878;28;39190;-82
2021/06/13 04:37:47;;;;;;;0.50;0.50;;;;;;;15.03;62.37;99761.69;5101784;28;41594;-90
2021/06/13 04:40:14;;;;;;;0.50;0.50;;;;;;;15.09;62.51;99761.25;5068964;28;43720;-83
2021/06/13 04:42:42;;;;;;;0.60;0.40;;;;;;;15.16;62.38;99762.56;5085998;28;42575;-85
2021/06/13 04:45:11;;;;;;;0.47;0.47;;;;;;;15.08;62.00;99738.22;5064064;28;40069;-80
2021/06/13 04:47:39;;;;;;;0.77;0.77;;;;;;;15.32;61.95;99768.59;5051140;28;42197;-79
2021/06/13 04:50:07;;;;;;;0.33;0.33;;;;;;;15.40;61.69;99771.59;5066346;28;42073;-78
2021/06/13 04:52:39;;;;;;;0.43;0.43;;;;;;;15.49;61.62;99767.44;5082661;28;41206;-80
2021/06/13 04:55:16;;;;;;;0.63;0.63;;;;;;;15.56;61.23;99759.91;5069999;28;40760;-80
2021/06/13 04:58:03;;;;;;;0.83;0.70;;;;;;;15.56;61.27;99750.09;5085761;28;40593;-88
2021/06/13 05:00:30;;;;;;;0.30;0.30;;;;;;;15.64;61.12;99757.56;5084119;28;41660;-85
2021/06/13 05:02:58;;;;;;;1.27;1.27;;;;;;;15.79;61.10;99777.88;5071575;28;42159;-81
2021/06/13 05:05:25;;;;;;;0.47;0.47;;;;;;;15.87;60.98;99790.69;5069369;28;40872;-81
2021/06/13 05:07:55;;;;;;;0.50;0.50;;;;;;;15.95;60.88;99783.84;5052136;28;40642;-80
2021/06/13 05:10:23;;;;;;;1.00;0.93;;;;;;;16.03;60.40;99777.97;5102409;28;43264;-85
2021/06/13 05:12:52;;;;;;;0.50;0.50;;;;;;;16.04;59.96;99775.19;5069666;28;42692;-83
2021/06/13 05:15:22;;;;;;;0.50;0.50;;;;;;;16.19;60.11;99797.31;5085332;28;39116;-87
2021/06/13 05:17:49;;;;;;;0.40;0.40;;;;;;;16.27;59.93;99789.59;5068640;28;42470;-86
2021/06/13 05:20:18;;;;;;;0.40;0.30;;;;;;;16.28;59.63;99779.78;5084985;28;42477;-86
2021/06/13 05:23:04;;;;;;;0.30;0.30;;;;;;;16.45;59.31;99808.81;5067408;28;42709;-84
2021/06/13 05:25:33;;;;;;;1.40;0.87;;;;;;;16.50;58.45;99801.31;5065068;28;39852;-79
2021/06/13 05:28:02;;;;;;;0.43;0.43;;;;;;;16.60;58.62;99802.38;5075600;28;42143;-85
2021/06/13 05:30:33;;;;;;;0.33;0.33;;;;;;;16.75;58.18;99817.34;5068579;28;43086;-80
2021/06/13 05:33:02;;;;;;;0.40;0.40;;;;;;;16.83;57.85;99814.09;5064478;28;43007;-80
2021/06/13 05:35:29;;;;;;;0.53;0.53;;;;;;;16.89;58.09;99819.03;5068383;28;39886;-79
2021/06/13 05:37:59;;;;;;;0.50;0.50;;;;;;;17.01;57.91;99830.66;5067608;28;41554;-80
2021/06/13 05:40:28;;;;;;;0.30;0.30;;;;;;;17.01;57.40;99819.94;5068362;28;42666;-83
2021/06/13 05:42:55;;;;;;;1.50;0.60;;;;;;;17.11;56.99;99823.63;5066288;28;42380;-83
2021/06/13 05:45:25;;;;;;;0.40;0.40;;;;;;;17.18;56.93;99820.38;5068397;28;41655;-77
2021/06/13 05:47:53;;;;;;;1.13;1.13;;;;;;;17.31;56.20;99836.38;5070355;28;42243;-85
2021/06/13 05:50:22;;;;;;;0.60;0.50;;;;;;;17.47;55.74;99847.66;5067125;28;43418;-79
2021/06/13 05:52:50;;;;;;;0.30;0.30;;;;;;;17.87;54.99;99850.03;5052826;28;41841;-83
2021/06/13 05:55:20;;;;;;;0.67;0.67;;;;;;;18.48;53.21;99864.03;5070006;28;40109;-91
2021/06/13 05:57:49;;;;;;;0.63;0.40;;;;;;;18.97;51.58;99869.91;5069388;28;41833;-87
2021/06/13 06:00:19;;;;;;;2.53;0.77;;;;;;;19.11;51.45;99873.28;5067274;28;43153;-87
2021/06/13 06:02:47;;;;;;;0.90;0.60;;;;;;;19.01;51.22;99879.41;5100874;28;42165;-87
2021/06/13 06:05:17;;;;;;;0.50;0.50;;;;;;;18.93;51.49;99879.16;5050254;28;39000;-84
2021/06/13 06:07:46;;;;;;;0.47;0.47;;;;;;;18.73;52.08;99858.47;5100884;28;41609;-82
2021/06/13 06:10:14;;;;;;;0.60;0.60;;;;;;;18.76;52.37;99866.28;5068639;28;42375;-82
2021/06/13 06:12:44;;;;;;;0.40;0.40;;;;;;;18.73;52.20;99877.25;5068550;28;42202;-85
2021/06/13 06:15:14;;;;;;;1.70;0.90;;;;;;;18.78;52.15;99875.06;5067429;28;38979;-80
2021/06/13 06:17:42;;;;;;;0.57;0.57;;;;;;;18.84;51.86;99874.53;5050979;28;40873;-82
2021/06/13 06:20:12;;;;;;;0.80;0.60;;;;;;;18.97;51.30;99882.47;5067001;28;42551;-84
2021/06/13 06:22:39;;;;;;;0.37;0.37;;;;;;;18.96;50.35;99895.03;5050554;28;41379;-85
2021/06/13 06:25:09;;;;;;;0.40;0.40;;;;;;;18.81;50.98;99896.25;5066531;28;40280;-85
2021/06/13 06:27:37;;;;;;;1.87;1.23;;;;;;;18.60;51.17;99893.47;5065675;28;41775;-87
2021/06/13 06:30:10;;;;;;;0.40;0.40;;;;;;;18.72;51.60;99897.00;5067312;28;43509;-92
2021/06/13 06:32:38;;;;;;;0.67;0.67;;;;;;;18.70;51.38;99888.22;5068323;28;41860;-85
2021/06/13 06:35:07;;;;;;;1.57;0.80;;;;;;;18.55;51.20;99890.25;5066992;28;41567;-85
2021/06/13 06:37:36;;;;;;;0.33;0.33;;;;;;;18.56;50.62;99910.72;5068647;28;41575;-84
2021/06/13 06:40:06;;;;;;;0.73;0.40;;;;;;;18.50;51.02;99913.06;5068333;28;43099;-83
2021/06/13 06:42:34;;;;;;;0.47;0.40;;;;;;;18.53;51.80;99908.31;5067022;28;42034;-82
2021/06/13 06:45:02;;;;;;;0.60;0.40;;;;;;;18.59;51.93;99909.69;5050000;28;39275;-84
2021/06/13 06:47:31;;;;;;;0.30;0.30;;;;;;;18.65;51.25;99917.25;5050863;28;40836;-82
2021/06/13 06:49:58;;;;;;;1.00;0.50;;;;;;;18.71;50.85;99915.91;5083448;28;42989;-84
2021/06/13 06:52:26;;;;;;;0.80;0.80;;;;;;;18.81;51.78;99912.38;5100381;28;42192;-83
2021/06/13 06:54:53;;;;;;;0.50;0.50;;;;;;;19.00;51.55;99917.97;5067503;28;39790;-82
2021/06/13 06:57:21;;;;;;;0.47;0.37;;;;;;;19.13;51.40;99919.69;5067181;28;41638;-80
2021/06/13 06:59:49;;;;;;;0.70;0.70;;;;;;;19.23;51.41;99917.94;5067470;28;42767;-82
2021/06/13 07:02:16;;;;;;;0.50;0.47;;;;;;;19.40;51.31;99925.50;5065883;28;41883;-80
2021/06/13 07:04:46;;;;;;;0.40;0.40;;;;;;;20.28;48.68;99950.34;5066252;28;39932;-84
2021/06/13 07:07:13;;;;;;;0.40;0.40;;;;;;;21.52;44.67;99969.97;5097433;28;41794;-86
2021/06/13 07:09:41;;;;;;;0.60;0.60;;;;;;;22.31;42.46;99984.28;5066834;28;43242;-80
2021/06/13 07:12:10;;;;;;;0.43;0.43;;;;;;;22.58;43.31;99980.84;5066441;28;41416;-89
2021/06/13 07:14:37;;;;;;;0.37;0.37;;;;;;;22.46;43.77;99974.75;5066313;28;40125;-85
2021/06/13 07:17:05;;;;;;;0.77;0.60;;;;;;;22.32;44.06;99974.34;5067690;28;42250;-85
2021/06/13 07:19:33;;;;;;;0.50;0.50;;;;;;;22.11;44.09;99977.19;5054428;28;42938;-85
2021/06/13 07:22:02;;;;;;;0.47;0.47;;;;;;;21.93;44.85;99968.06;5100324;28;42250;-83
2021/06/13 07:24:29;;;;;;;0.50;0.50;;;;;;;21.71;44.69;99948.47;5050423;28;40160;-89
2021/06/13 07:26:57;;;;;;;0.40;0.40;;;;;;;21.62;44.50;99965.47;5082753;28;40556;-83
2021/06/13 07:29:25;;;;;;;0.50;0.50;;;;;;;21.59;43.35;99981.94;5053946;28;41896;-80
2021/06/13 07:31:52;;;;;;;0.30;0.30;;;;;;;21.39;43.01;99982.84;5083885;28;42758;-86
2021/06/13 07:34:20;;;;;;;0.57;0.57;;;;;;;22.00;43.98;99969.25;5066102;28;39633;-82
2021/06/13 07:36:47;;;;;;;0.47;0.40;;;;;;;23.60;41.07;99987.22;5068218;28;41231;-85
2021/06/13 07:39:16;;;;;;;0.47;0.47;;;;;;;25.18;38.43;99998.09;5068450;28;45515;-83
2021/06/13 07:41:44;;;;;;;0.67;0.67;;;;;;;26.53;36.05;100006.13;5067442;28;41935;-84
2021/06/13 07:44:11;;;;;;;0.53;0.53;;;;;;;27.98;32.81;100029.38;5049116;28;39902;-87
2021/06/13 07:46:39;;;;;;;0.60;0.60;;;;;;;28.97;30.77;100041.28;5066607;28;41420;-83
2021/06/13 07:49:07;;;;;;;0.80;0.80;;;;;;;28.74;30.82;100031.22;5066242;28;42472;-82
2021/06/13 07:51:34;;;;;;;0.40;0.40;;;;;;;28.13;31.35;100027.59;5068384;28;42986;-82
2021/06/13 07:54:02;;;;;;;0.80;0.80;;;;;;;27.40;31.78;100033.34;5050342;28;40259;-83
2021/06/13 07:56:31;;;;;;;0.67;0.67;;;;;;;28.32;31.97;100025.44;5066382;28;42205;-84
2021/06/13 07:58:58;;;;;;;0.90;0.90;;;;;;;31.14;28.24;100048.56;5068579;28;42690;-84
2021/06/13 08:01:26;;;;;;;0.50;0.50;;;;;;;31.19;28.87;100043.31;5068237;27;42228;-89
2021/06/13 08:03:54;;;;;;;0.40;0.40;;;;;;;30.33;29.47;100028.84;5082718;28;40018;-84
2021/06/13 08:06:23;;;;;;;1.13;0.53;;;;;;;29.34;30.15;100027.56;5067830;28;41759;-89
2021/06/13 08:08:51;;;;;;;0.50;0.50;;;;;;;28.52;31.25;100032.09;5066718;28;42116;-83
2021/06/13 08:11:18;;;;;;;0.50;0.50;;;;;;;27.76;33.41;100014.69;5052401;28;41194;-84
2021/06/13 08:13:47;;;;;;;0.43;0.40;;;;;;;27.20;34.72;100002.13;5086256;28;39423;-83
2021/06/13 08:16:15;;;;;;;0.67;0.63;;;;;;;26.60;34.67;100005.25;5070731;28;41696;-83
2021/06/13 08:18:43;;;;;;;0.60;0.60;;;;;;;26.12;35.20;99993.31;5070054;28;42589;-88
2021/06/13 08:21:10;;;;;;;0.73;0.73;;;;;;;25.70;36.36;99995.28;5069872;28;42102;-86
2021/06/13 08:23:38;;;;;;;0.77;0.77;;;;;;;25.35;36.44;100007.13;5071439;28;40661;-81
2021/06/13 08:26:05;;;;;;;0.40;0.40;;;;;;;24.93;37.11;99996.25;5069091;28;41331;-81
2021/06/13 08:28:33;;;;;;;0.93;0.93;;;;;;;24.60;38.43;100001.38;5068839;28;42581;-87
2021/06/13 08:31:03;;;;;;;0.40;0.40;;;;;;;24.18;37.99;99975.97;5086294;28;41532;-89
2021/06/13 08:33:31;;;;;;;3.07;1.20;;;;;;;25.39;36.06;99997.66;5052963;28;39102;-80
2021/06/13 08:35:59;;;;;;;0.40;0.40;;;;;;;26.94;34.48;100020.56;5070795;28;41863;-81
2021/06/13 08:38:26;;;;;;;0.80;0.80;;;;;;;28.17;31.65;100037.09;5070941;28;43463;-87
2021/06/13 08:40:54;;;;;;;1.27;0.80;;;;;;;29.39;31.41;100036.09;5081882;28;42299;-87
2021/06/13 08:43:21;;;;;;;2.90;1.27;;;;;;;30.90;28.26;100050.66;5103091;27;40158;-81
2021/06/13 08:45:54;;;;;;;0.40;0.40;;;;;;;32.78;26.60;100057.47;5069220;28;41365;-85
2021/06/13 08:48:27;;;;;;;0.70;0.70;;;;;;;34.73;23.07;100075.72;5085805;28;42994;-79
2021/06/13 08:50:56;;;;;;;0.70;0.70;;;;;;;36.40;21.33;100075.50;5067868;28;43739;-83
2021/06/13 08:53:23;;;;;;;0.73;0.73;;;;;;;37.73;19.52;100055.59;5086587;28;39045;-86
2021/06/13 08:55:51;;;;;;;1.57;0.80;;;;;;;39.06;17.96;100101.44;5069219;28;41645;-84
2021/06/13 08:58:19;;;;;;;1.87;1.20;;;;;;;39.70;17.45;100091.59;5085396;28;42449;-82
2021/06/13 09:00:49;;;;;;;0.60;0.60;;;;;;;39.91;16.41;100089.16;5052061;28;41403;-85
2021/06/13 09:03:18;;;;;;;0.70;0.70;;;;;;;39.99;16.79;100075.66;5084332;28;40424;-79
2021/06/13 09:05:47;;;;;;;0.70;0.70;;;;;;;40.26;17.07;100081.25;5068800;28;41978;-84
2021/06/13 09:08:16;;;;;;;1.97;1.00;;;;;;;40.46;17.82;100066.75;5101830;28;42376;-84
2021/06/13 09:10:46;;;;;;;0.60;0.60;;;;;;;40.91;16.86;100052.50;5071169;28;42249;-82
2021/06/13 09:13:17;;;;;;;0.60;0.60;;;;;;;40.98;16.85;100067.00;5071437;28;39797;-82
2021/06/13 09:15:47;;;;;;;1.67;1.07;;;;;;;39.36;16.83;100043.69;5068752;28;42528;-82
2021/06/13 09:18:37;;;;;;;0.70;0.70;;;;;;;36.79;19.79;100045.63;5069553;28;42551;-92
2021/06/13 09:21:08;;;;;;;0.70;0.70;;;;;;;35.63;20.29;100039.31;5052756;28;42211;-83
2021/06/13 09:23:38;;;;;;;1.10;0.70;;;;;;;36.67;20.55;100024.31;5069097;28;39865;-90
2021/06/13 09:26:07;;;;;;;0.57;0.57;;;;;;;38.06;19.20;100038.31;5069524;28;41455;-87
2021/06/13 09:28:37;;;;;;;0.60;0.60;;;;;;;39.11;17.77;100052.44;5051786;28;41681;-85
2021/06/13 09:31:06;;;;;;;0.67;0.67;;;;;;;39.90;17.12;100056.94;5086161;28;41522;-85
2021/06/13 09:33:36;;;;;;;0.60;0.60;;;;;;;40.21;16.33;100057.03;5051553;28;39720;-84
2021/06/13 09:36:07;;;;;;;0.80;0.80;;;;;;;40.01;16.64;100075.41;5066577;28;42170;-85
2021/06/13 09:38:37;;;;;;;0.40;0.40;;;;;;;39.19;17.95;100053.97;5065995;28;42944;-86
2021/06/13 09:41:07;;;;;;;0.80;0.60;;;;;;;37.99;18.99;100037.63;5080951;28;41149;-88
2021/06/13 09:43:38;;;;;;;0.70;0.70;;;;;;;38.08;18.66;100036.19;5049089;28;39207;-83
2021/06/13 09:46:08;;;;;;;0.70;0.70;;;;;;;39.30;17.70;100057.72;5098781;28;41600;-81
2021/06/13 09:48:37;;;;;;;0.50;0.50;;;;;;;40.80;17.08;100071.00;5099016;28;43230;-87
2021/06/13 09:51:08;;;;;;;0.65;0.65;;;;;;;42.10;15.99;100068.53;5065529;28;44204;-83
2021/06/13 09:53:43;;;;;;;0.60;0.60;;;;;;;43.06;15.12;100076.22;5067885;28;40831;-81
2021/06/13 09:56:26;;;;;;;0.60;0.60;;;;;;;43.66;13.80;100080.06;5069543;28;42173;-81
2021/06/13 09:59:05;;;;;;;0.73;0.73;;;;;;;43.70;14.48;100070.84;5085801;28;42478;-81
2021/06/13 10:01:38;;;;;;;1.20;1.10;;;;;;;43.27;14.41;100074.31;5068604;28;42751;-79
2021/06/13 10:04:08;;;;;;;0.50;0.50;;;;;;;42.53;14.48;100072.03;5063988;28;39730;-80
2021/06/13 10:06:38;;;;;;;0.60;0.60;;;;;;;41.32;16.64;100044.44;5051791;28;41975;-79
2021/06/13 10:09:07;;;;;;;0.63;0.63;;;;;;;40.51;17.07;100061.25;5067165;28;43154;-85
2021/06/13 10:11:37;;;;;;;0.77;0.70;;;;;;;39.58;17.34;100045.66;5067794;28;41587;-83
2021/06/13 10:14:10;;;;;;;0.77;0.77;;;;;;;38.06;18.08;100038.31;5051031;28;39284;-82
2021/06/13 10:16:41;;;;;;;0.70;0.70;;;;;;;36.62;20.48;100015.91;5097134;28;41662;-82
2021/06/13 10:19:12;;;;;;;0.80;0.80;;;;;;;35.68;21.34;100019.31;5080868;28;42187;-84
2021/06/13 10:21:46;;;;;;;0.60;0.60;;;;;;;34.91;21.33;100023.50;5084907;28;41538;-77
2021/06/13 10:24:16;;;;;;;0.60;0.60;;;;;;;34.24;22.30;100011.28;5068402;28;38749;-81
2021/06/13 10:26:46;;;;;;;1.20;1.10;;;;;;;33.73;23.50;99973.66;5067187;28;42939;-87
2021/06/13 10:29:15;;;;;;;0.53;0.53;;;;;;;33.40;23.17;99982.03;5049465;28;42663;-79
2021/06/13 10:31:44;;;;;;;1.17;0.33;;;;;;;32.81;23.66;99982.13;5067484;28;42526;-81
2021/06/13 10:34:12;;;;;;;0.93;0.83;;;;;;;32.42;23.57;99989.28;5068780;28;39763;-85
2021/06/13 10:36:41;;;;;;;0.57;0.57;;;;;;;32.18;23.58;99976.16;5084656;28;40846;-83
2021/06/13 10:39:10;;;;;;;0.50;0.50;;;;;;;32.39;24.25;99984.19;5083930;28;41748;-83
2021/06/13 10:41:39;;;;;;;0.87;0.87;;;;;;;32.22;24.46;99979.34;5068149;28;42527;-83
2021/06/13 10:44:10;;;;;;;0.40;0.40;;;;;;;31.90;25.83;99969.97;5083249;28;39882;-80
2021/06/13 10:46:40;;;;;;;0.60;0.60;;;;;;;31.33;24.47;99952.84;5100765;27;41451;-86
2021/06/13 10:49:26;;;;;;;0.50;0.50;;;;;;;31.18;26.08;99964.97;5066108;28;41944;-80
2021/06/13 10:52:06;;;;;;;0.70;0.50;;;;;;;30.79;24.68;99981.94;5066661;28;42284;-84
2021/06/13 10:54:36;;;;;;;0.40;0.40;;;;;;;30.47;26.44;99966.94;5067005;28;39635;-80
2021/06/13 10:57:27;;;;;;;0.60;0.60;;;;;;;30.27;26.32;99972.25;5068865;28;41868;-83
2021/06/13 10:59:57;;;;;;;1.03;1.03;;;;;;;30.10;28.45;99960.72;5048745;28;41851;-79
2021/06/13 11:02:26;;;;;;;0.40;0.40;;;;;;;29.89;26.45;99960.69;5083188;28;41027;-76
2021/06/13 11:04:55;;;;;;;0.50;0.50;;;;;;;29.83;27.97;99958.69;5084875;28;39897;-82
2021/06/13 11:07:58;;;;;;;0.60;0.60;;;;;;;29.82;28.56;99954.28;5068588;27;41537;-80
2021/06/13 11:10:32;;;;;;;0.70;0.63;;;;;;;29.75;26.74;99973.34;5079997;28;41554;-82
2021/06/13 11:13:03;;;;;;;0.40;0.40;;;;;;;29.71;25.94;99974.75;5068769;27;42936;-84
2021/06/13 11:15:49;;;;;;;0.40;0.40;;;;;;;29.66;28.13;99958.09;5065769;28;39442;-81
2021/06/13 11:18:26;;;;;;;0.87;0.80;;;;;;;29.59;26.44;99959.91;5066158;28;42125;-79
2021/06/13 11:21:04;;;;;;;1.10;1.10;;;;;;;29.67;29.67;99946.97;5098254;28;41898;-76
2021/06/13 11:23:52;;;;;;;0.50;0.50;;;;;;;29.76;28.06;99950.44;5066621;28;41888;-81
2021/06/13 11:26:39;;;;;;;0.40;0.40;;;;;;;29.70;29.33;99942.16;5050039;28;39004;-82
2021/06/13 11:29:11;;;;;;;0.77;0.63;;;;;;;29.69;28.71;99943.19;5097305;28;42566;-78
2021/06/13 11:31:51;;;;;;;0.43;0.40;;;;;;;29.70;27.58;99950.34;5067687;28;41918;-79
2021/06/13 11:34:20;;;;;;;0.60;0.60;;;;;;;29.74;26.79;99946.22;5066332;28;41568;-81
2021/06/13 11:36:50;;;;;;;0.50;0.50;;;;;;;29.80;26.36;99950.88;5066475;28;41756;-83
2021/06/13 11:39:28;;;;;;;0.60;0.60;;;;;;;30.07;28.08;99927.47;5065696;28;41832;-81
2021/06/13 11:42:18;;;;;;;1.00;0.90;;;;;;;30.34;26.21;99922.03;5070732;28;41861;-84
2021/06/13 11:44:48;;;;;;;0.47;0.47;;;;;;;30.91;25.74;99945.63;5066259;28;44341;-82
2021/06/13 11:47:37;;;;;;;0.60;0.60;;;;;;;31.93;25.60;99939.41;5049977;28;39145;-81